Time;durP1;ratioP1;P1;durP2;ratioP2;P2;SDS_P1;SDS_P2;PMS_P1;PMS_P2;Temp;Humidity;BMP_temperature;BMP_pressure;BME280_temperature;BME280_humidity;BME280_pressure;Samples;Min_cycle;Max_cycle;Signal;HPM_P1;HPM_P2
2021/06/01 00:01:50;;;;;;;2.67;2.47;;;21.40;58.30;;;;;;5054357;28;20380;-62
2021/06/01 00:04:17;;;;;;;3.28;2.65;;;22.10;58.70;;;;;;5054118;28;20155;-62
2021/06/01 00:06:43;;;;;;;4.50;2.60;;;21.60;58.40;;;;;;5054340;28;20357;-62
2021/06/01 00:09:13;;;;;;;3.30;2.53;;;21.70;58.40;;;;;;5054307;28;20083;-62
2021/06/01 00:11:39;;;;;;;3.30;2.33;;;21.60;58.30;;;;;;5053137;28;20021;-62
2021/06/01 00:14:06;;;;;;;4.45;2.80;;;21.60;58.30;;;;;;5054189;28;20021;-61
2021/06/01 00:16:32;;;;;;;3.17;2.67;;;21.30;58.10;;;;;;5052447;28;20017;-62
2021/06/01 00:18:58;;;;;;;2.38;2.17;;;21.60;58.30;;;;;;5054190;28;20369;-62
2021/06/01 00:21:24;;;;;;;3.33;2.40;;;21.30;58.10;;;;;;5053804;28;20047;-62
2021/06/01 00:23:52;;;;;;;3.03;2.28;;;21.30;58.10;;;;;;5052740;28;20082;-62
2021/06/01 00:26:18;;;;;;;2.53;2.33;;;21.30;58.10;;;;;;5052446;28;20021;-62
2021/06/01 00:28:44;;;;;;;2.70;2.50;;;21.70;58.20;;;;;;5053712;28;20384;-62
2021/06/01 00:31:10;;;;;;;3.58;2.83;;;21.30;58.00;;;;;;5053554;28;20021;-62
2021/06/01 00:33:36;;;;;;;2.38;2.13;;;21.60;58.10;;;;;;5053589;28;20021;-62
2021/06/01 00:36:02;;;;;;;3.42;2.45;;;21.60;58.10;;;;;;5053846;28;20017;-62
2021/06/01 00:38:28;;;;;;;3.67;2.60;;;21.50;58.00;;;;;;5053633;28;20392;-61
2021/06/01 00:40:55;;;;;;;2.70;2.50;;;;;;;;;;5053828;28;20021;-62
2021/06/01 00:43:21;;;;;;;4.90;2.60;;;21.60;57.50;;;;;;5053611;28;20087;-62
2021/06/01 00:45:46;;;;;;;2.63;2.25;;;21.50;58.00;;;;;;5053725;28;20021;-62
2021/06/01 00:48:12;;;;;;;3.13;2.40;;;21.40;57.90;;;;;;5052450;28;20442;-62
2021/06/01 00:50:38;;;;;;;5.22;3.08;;;21.50;57.90;;;;;;5053398;28;20120;-61
2021/06/01 00:53:06;;;;;;;2.35;2.15;;;21.50;58.50;;;;;;5053241;28;20020;-61
2021/06/01 00:55:32;;;;;;;3.17;2.13;;;21.50;57.80;;;;;;5053113;28;20029;-62
2021/06/01 00:57:57;;;;;;;3.03;2.15;;;21.20;57.70;;;;;;5053510;28;20025;-62
2021/06/01 01:03:09;;;;;;;2.60;2.35;;;21.50;57.80;;;;;;5053227;28;20552;-62
2021/06/01 01:05:37;;;;;;;3.33;2.47;;;21.50;58.30;;;;;;5052920;28;20110;-62
2021/06/01 01:11:13;;;;;;;2.40;2.20;;;21.50;57.60;;;;;;5053188;28;20094;-61
2021/06/01 01:13:53;;;;;;;2.92;2.42;;;21.50;57.60;;;;;;5053016;28;20028;-62
2021/06/01 01:16:22;;;;;;;2.17;2.07;;;21.90;57.80;;;;;;5053045;28;20021;-62
2021/06/01 01:18:53;;;;;;;2.47;2.28;;;21.40;80.70;;;;;;5051817;28;20438;-62
2021/06/01 01:21:36;;;;;;;2.65;1.92;;;21.50;57.60;;;;;;5053239;28;20021;-62
2021/06/01 01:24:26;;;;;;;3.03;2.40;;;21.50;57.60;;;;;;5052861;28;20041;-62
2021/06/01 01:27:06;;;;;;;2.20;2.00;;;21.40;57.40;;;;;;5052762;28;20021;-62
2021/06/01 01:29:38;;;;;;;2.88;2.17;;;21.40;57.40;;;;;;5052636;28;20086;-62
2021/06/01 01:32:06;;;;;;;3.20;2.90;;;21.40;57.40;;;;;;5052798;28;20254;-62
2021/06/01 01:34:33;;;;;;;2.08;1.92;;;21.40;57.40;;;;;;5053245;28;20017;-62
2021/06/01 01:37:00;;;;;;;2.67;2.28;;;21.90;57.70;;;;;;5052750;28;20053;-62
2021/06/01 01:39:30;;;;;;;2.30;2.10;;;21.30;57.30;;;;;;5052891;28;20025;-62
2021/06/01 01:41:56;;;;;;;1.85;1.75;;;21.20;57.30;;;;;;5052611;28;20033;-62
2021/06/01 01:44:25;;;;;;;2.65;2.15;;;21.40;57.30;;;;;;5052760;28;20036;-62
2021/06/01 01:47:05;;;;;;;2.40;2.20;;;21.20;57.20;;;;;;5052851;28;20029;-62
2021/06/01 01:49:30;;;;;;;2.05;1.85;;;21.40;57.30;;;;;;5051702;28;20100;-62
2021/06/01 01:52:00;;;;;;;2.53;2.10;;;21.10;57.10;;;;;;5052471;28;20476;-62
2021/06/01 01:54:29;;;;;;;2.28;2.08;;;21.40;57.30;;;;;;5052611;28;20028;-62
2021/06/01 01:57:07;;;;;;;3.38;2.50;;;21.40;57.20;;;;;;5051486;28;20029;-62
2021/06/01 01:59:33;;;;;;;2.17;1.98;;;21.40;57.20;;;;;;5051398;28;20036;-62
2021/06/01 02:02:00;;;;;;;2.08;1.98;;;21.40;57.20;;;;;;5034406;28;20089;-62
2021/06/01 02:04:28;;;;;;;2.50;2.30;;;21.10;57.10;;;;;;5052264;28;20111;-62
2021/06/01 02:06:56;;;;;;;2.10;1.90;;;21.30;57.20;;;;;;5052569;28;20373;-62
2021/06/01 02:09:22;;;;;;;2.58;2.38;;;21.40;57.20;;;;;;5052270;28;20029;-62
2021/06/01 02:11:47;;;;;;;2.38;2.17;;;21.80;57.40;;;;;;5052467;28;20048;-61
2021/06/01 02:14:13;;;;;;;2.88;2.00;;;21.20;57.10;;;;;;5052209;28;20048;-62
2021/06/01 02:16:41;;;;;;;2.70;2.25;;;21.40;57.10;;;;;;5052414;28;20116;-62
2021/06/01 02:19:09;;;;;;;1.98;1.80;;;21.50;57.20;;;;;;5052421;28;20049;-62
2021/06/01 02:24:31;;;;;;;1.95;1.85;;;21.30;57.00;;;;;;5052149;28;20399;-62
2021/06/01 02:27:05;;;;;;;2.50;2.22;;;21.30;57.10;;;;;;5052348;28;20040;-62
2021/06/01 02:29:39;;;;;;;2.00;1.90;;;21.30;57.00;;;;;;5052358;28;20029;-61
2021/06/01 02:32:06;;;;;;;2.10;1.90;;;21.30;57.00;;;;;;5052361;28;20029;-61
2021/06/01 02:34:38;;;;;;;2.70;2.00;;;21.30;57.00;;;;;;5034092;28;20025;-62
2021/06/01 02:37:04;;;;;;;3.13;2.03;;;21.30;56.90;;;;;;5052294;28;20033;-62
2021/06/01 02:39:30;;;;;;;2.03;1.83;;;21.60;57.10;;;;;;5050768;28;20010;-62
2021/06/01 02:41:57;;;;;;;2.08;1.88;;;21.70;57.10;;;;;;5055618;28;20507;-62
2021/06/01 02:44:23;;;;;;;1.95;1.80;;;21.80;57.20;;;;;;5054746;28;20025;-62
2021/06/01 02:46:50;;;;;;;2.08;1.90;;;21.00;56.70;;;;;;5055551;28;20048;-62
2021/06/01 02:49:17;;;;;;;1.77;1.67;;;21.30;56.80;;;;;;5055454;28;20017;-61
2021/06/01 02:51:43;;;;;;;2.15;1.88;;;21.20;56.80;;;;;;5037579;28;20021;-62
2021/06/01 02:54:09;;;;;;;2.10;1.63;;;21.30;56.80;;;;;;5055510;28;20083;-62
2021/06/01 02:56:35;;;;;;;2.95;1.77;;;21.00;56.60;;;;;;5055607;28;20018;-62
2021/06/01 02:59:04;;;;;;;1.98;1.77;;;21.00;56.60;;;;;;5055251;28;20029;-62
2021/06/01 03:01:31;;;;;;;2.17;1.70;;;21.20;56.70;;;;;;5055224;28;20417;-62
2021/06/01 03:03:57;;;;;;;1.90;1.70;;;21.20;56.60;;;;;;5055207;28;20044;-62
2021/06/01 03:06:27;;;;;;;2.03;1.80;;;21.20;56.70;;;;;;5055282;28;20032;-62
2021/06/01 03:08:53;;;;;;;1.75;1.65;;;21.00;56.50;;;;;;5055210;28;20433;-62
2021/06/01 03:11:20;;;;;;;2.55;1.65;;;21.20;56.60;;;;;;5054064;28;20039;-62
2021/06/01 03:13:47;;;;;;;1.98;1.52;;;21.30;56.70;;;;;;5055284;28;20025;-62
2021/06/01 03:16:14;;;;;;;1.70;1.60;;;21.20;56.60;;;;;;5055387;28;20044;-62
2021/06/01 03:18:41;;;;;;;1.70;1.60;;;21.20;56.60;;;;;;5055058;28;20033;-62
2021/06/01 03:21:07;;;;;;;1.80;1.70;;;20.90;56.40;;;;;;5055190;28;20025;-62
2021/06/01 03:23:32;;;;;;;1.92;1.67;;;21.00;56.40;;;;;;5055095;28;20028;-62
2021/06/01 03:25:58;;;;;;;1.65;1.55;;;20.90;56.40;;;;;;5053992;28;20379;-62
2021/06/01 03:28:24;;;;;;;1.70;1.60;;;20.90;56.40;;;;;;5055031;28;20467;-62
2021/06/01 03:30:50;;;;;;;1.98;1.48;;;21.20;56.50;;;;;;5055029;28;20476;-62
2021/06/01 03:33:17;;;;;;;1.63;1.38;;;21.10;56.40;;;;;;5053289;28;20028;-62
2021/06/01 03:35:43;;;;;;;1.58;1.48;;;21.10;56.40;;;;;;5054743;28;20143;-62
2021/06/01 03:38:09;;;;;;;1.67;1.58;;;21.70;56.70;;;;;;5053419;28;20096;-62
2021/06/01 03:40:36;;;;;;;1.88;1.67;;;21.20;56.40;;;;;;5054530;28;20021;-62
2021/06/01 03:43:02;;;;;;;2.30;1.90;;;21.60;56.60;;;;;;5054698;28;20154;-62
2021/06/01 03:45:28;;;;;;;1.42;1.27;;;21.00;56.30;;;;;;5054683;28;20045;-62
2021/06/01 03:47:54;;;;;;;1.60;1.50;;;21.10;56.40;;;;;;5053162;28;20108;-62
2021/06/01 03:50:20;;;;;;;1.75;1.60;;;21.00;56.30;;;;;;5054226;28;20017;-62
2021/06/01 03:52:46;;;;;;;1.40;1.27;;;21.60;56.60;;;;;;5053085;28;20025;-62
2021/06/01 03:55:12;;;;;;;2.45;1.58;;;21.10;56.40;;;;;;5054612;28;20025;-62
2021/06/01 03:57:38;;;;;;;3.17;1.83;;;21.10;56.30;;;;;;5052981;28;20060;-62
2021/06/01 04:00:10;;;;;;;1.42;1.33;;;21.10;56.40;;;;;;5052759;28;20434;-62
2021/06/01 04:02:36;;;;;;;2.72;1.83;;;21.10;56.30;;;;;;5054449;28;20036;-62
2021/06/01 04:05:02;;;;;;;1.30;1.20;;;21.10;56.40;;;;;;5054010;28;20412;-62
2021/06/01 04:07:28;;;;;;;1.50;1.40;;;21.10;56.40;;;;;;5054440;28;20025;-62
2021/06/01 04:09:53;;;;;;;1.85;1.60;;;21.10;56.40;;;;;;5054121;28;20495;-62
2021/06/01 04:12:19;;;;;;;1.45;1.35;;;20.90;56.30;;;;;;5054336;28;20048;-62
2021/06/01 04:14:44;;;;;;;2.60;1.45;;;21.50;56.60;;;;;;5053984;28;20013;-62
2021/06/01 04:17:10;;;;;;;1.40;1.30;;;20.80;56.20;;;;;;5054186;28;20383;-62
2021/06/01 04:19:36;;;;;;;1.80;1.38;;;20.80;56.30;;;;;;5053846;28;20032;-62
2021/06/01 04:22:02;;;;;;;1.75;1.50;;;20.80;56.90;;;;;;5053824;28;20043;-62
2021/06/01 04:24:28;;;;;;;2.63;2.03;;;21.10;56.40;;;;;;5054036;28;20498;-62
2021/06/01 04:26:59;;;;;;;1.75;1.65;;;21.00;56.30;;;;;;5053992;28;20021;-62
2021/06/01 04:29:25;;;;;;;1.95;1.67;;;21.00;56.40;;;;;;5052573;28;20013;-61
2021/06/01 04:31:51;;;;;;;2.75;1.63;;;21.50;56.70;;;;;;5053689;28;20114;-61
2021/06/01 04:34:17;;;;;;;1.40;1.30;;;21.00;56.40;;;;;;5053628;28;20024;-62
2021/06/01 04:36:43;;;;;;;1.48;1.38;;;21.10;56.50;;;;;;5052349;28;20021;-62
2021/06/01 04:39:09;;;;;;;2.20;1.27;;;20.70;56.30;;;;;;5053700;28;20514;-61
2021/06/01 04:41:34;;;;;;;1.65;1.55;;;20.70;56.30;;;;;;5053550;28;20388;-62
2021/06/01 04:44:00;;;;;;;1.60;1.50;;;20.80;56.40;;;;;;5053319;28;20190;-62
2021/06/01 04:46:26;;;;;;;1.70;1.60;;;20.70;56.30;;;;;;5053433;28;20021;-61
2021/06/01 04:48:52;;;;;;;1.52;1.42;;;21.10;56.50;;;;;;5053409;28;20033;-61
2021/06/01 04:51:19;;;;;;;1.73;1.30;;;20.80;56.40;;;;;;5053566;28;20040;-62
2021/06/01 04:53:53;;;;;;;1.52;1.42;;;21.00;56.50;;;;;;5051963;28;20075;-62
2021/06/01 04:56:19;;;;;;;1.30;1.20;;;20.70;56.30;;;;;;5052351;28;20031;-62
2021/06/01 04:58:45;;;;;;;2.28;1.40;;;21.20;56.60;;;;;;5051848;28;20033;-62
2021/06/01 05:01:11;;;;;;;1.35;1.25;;;21.00;56.50;;;;;;5053385;28;20037;-62
2021/06/01 05:03:38;;;;;;;1.55;1.45;;;21.00;56.50;;;;;;5052235;28;20506;-62
2021/06/01 05:06:04;;;;;;;1.30;1.20;;;20.70;56.40;;;;;;5052973;28;20033;-62
2021/06/01 05:08:30;;;;;;;1.23;1.13;;;21.00;56.50;;;;;;5053204;28;20025;-62
2021/06/01 05:10:55;;;;;;;1.70;1.40;;;21.00;79.90;;;;;;5053215;28;20071;-62
2021/06/01 05:13:21;;;;;;;2.80;1.33;;;20.70;56.50;;;;;;5053230;28;20021;-62
2021/06/01 05:15:48;;;;;;;2.55;1.30;;;21.10;56.70;;;;;;5053137;28;20028;-62
2021/06/01 05:18:15;;;;;;;1.52;1.42;;;20.90;56.70;;;;;;5053040;28;20071;-61
2021/06/01 05:20:41;;;;;;;2.70;1.02;;;21.50;57.00;;;;;;5053053;28;20024;-61
2021/06/01 05:23:06;;;;;;;2.15;1.23;;;21.40;57.50;;;;;;5053015;28;20062;-61
2021/06/01 05:25:32;;;;;;;1.33;1.23;;;21.00;57.50;;;;;;5052917;28;20483;-60
2021/06/01 05:27:58;;;;;;;1.30;1.15;;;21.00;57.20;;;;;;5052499;28;20051;-60
2021/06/01 05:30:31;;;;;;;1.77;1.42;;;21.00;57.00;;;;;;5052743;28;20103;-61
2021/06/01 05:33:12;;;;;;;1.60;1.40;;;21.40;57.30;;;;;;5052751;28;20033;-61
2021/06/01 05:35:42;;;;;;;2.45;1.45;;;21.30;57.90;;;;;;5052911;28;20017;-60
2021/06/01 05:38:09;;;;;;;2.45;1.55;;;21.60;59.40;;;;;;5052798;28;20357;-61
2021/06/01 05:40:34;;;;;;;1.52;1.23;;;20.70;59.70;;;;;;5052302;28;20108;-60
2021/06/01 05:43:00;;;;;;;1.90;1.50;;;20.80;60.00;;;;;;5052503;28;20044;-61
2021/06/01 05:45:26;;;;;;;1.35;1.25;;;20.80;59.40;;;;;;5052319;28;20017;-60
2021/06/01 05:47:51;;;;;;;3.17;1.30;;;21.00;59.10;;;;;;5052540;28;20028;-61
2021/06/01 05:50:17;;;;;;;1.40;1.30;;;20.70;59.10;;;;;;5052509;28;20047;-60
2021/06/01 05:52:43;;;;;;;1.50;1.30;;;21.50;59.10;;;;;;5052089;28;20029;-60
2021/06/01 05:55:09;;;;;;;3.78;1.60;;;21.00;58.60;;;;;;5052181;28;20091;-59
2021/06/01 05:57:35;;;;;;;2.22;1.50;;;21.00;59.10;;;;;;5052316;28;20021;-60
2021/06/01 06:00:01;;;;;;;1.92;1.70;;;20.80;58.90;;;;;;5052281;28;20021;-60
2021/06/01 06:02:26;;;;;;;3.42;1.42;;;21.00;58.40;;;;;;5052505;28;20044;-60
2021/06/01 06:04:52;;;;;;;2.08;1.23;;;21.60;58.90;;;;;;5052151;28;20491;-60
2021/06/01 06:07:18;;;;;;;3.22;1.50;;;21.10;58.60;;;;;;5052521;28;20013;-60
2021/06/01 06:09:43;;;;;;;2.35;1.33;;;21.10;58.70;;;;;;5052296;28;20071;-59
2021/06/01 06:12:09;;;;;;;2.75;1.63;;;20.80;58.80;;;;;;5052180;28;20055;-60
2021/06/01 06:14:35;;;;;;;4.00;1.60;;;21.10;58.70;;;;;;5054294;28;20025;-57
2021/06/01 06:17:07;;;;;;;4.40;1.35;;;21.10;58.70;;;;;;5056159;28;20044;-58
2021/06/01 06:19:39;;;;;;;2.50;1.33;;;21.10;59.00;;;;;;5056336;28;20123;-58
2021/06/01 06:22:05;;;;;;;2.65;1.50;;;21.50;59.00;;;;;;5055931;28;20554;-58
2021/06/01 06:24:30;;;;;;;3.08;1.40;;;21.10;59.00;;;;;;5055977;28;20028;-59
2021/06/01 06:26:57;;;;;;;2.65;1.48;;;21.00;59.00;;;;;;5055767;28;20017;-57
2021/06/01 06:29:22;;;;;;;1.67;1.33;;;21.10;59.20;;;;;;5055962;28;20130;-57
2021/06/01 06:31:48;;;;;;;2.60;1.73;;;21.10;58.90;;;;;;5055848;28;20014;-59
2021/06/01 06:34:13;;;;;;;4.63;1.52;;;21.20;58.80;;;;;;5055604;28;20040;-58
2021/06/01 06:36:39;;;;;;;3.38;1.40;;;20.90;58.50;;;;;;5055787;28;20114;-57
2021/06/01 06:39:06;;;;;;;2.67;1.63;;;20.80;57.80;;;;;;5055512;28;20061;-58
2021/06/01 06:41:32;;;;;;;5.75;1.83;;;21.10;58.10;;;;;;5055424;28;20017;-59
2021/06/01 06:43:57;;;;;;;10.57;3.08;;;21.60;57.00;;;;;;5055367;28;20036;-57
2021/06/01 06:46:26;;;;;;;8.70;3.05;;;21.10;55.30;;;;;;5055443;28;20021;-61
2021/06/01 06:48:52;;;;;;;7.93;2.75;;;20.80;54.10;;;;;;5055625;28;20078;-61
2021/06/01 06:51:19;;;;;;;9.77;2.47;;;21.00;55.00;;;;;;5055277;28;20410;-61
2021/06/01 06:53:52;;;;;;;11.00;2.55;;;21.00;54.60;;;;;;5055370;28;20035;-61
2021/06/01 06:56:19;;;;;;;2.97;2.17;;;20.80;55.00;;;;;;5055291;28;20029;-61
2021/06/01 06:58:45;;;;;;;4.22;1.92;;;20.80;55.10;;;;;;5055496;28;20090;-61
2021/06/01 07:01:11;;;;;;;6.93;2.10;;;21.00;54.90;;;;;;5055525;28;20021;-61
2021/06/01 07:03:37;;;;;;;6.35;2.35;;;21.00;54.60;;;;;;5054730;28;20506;-62
2021/06/01 07:06:03;;;;;;;4.50;1.83;;;20.80;54.50;;;;;;5054923;28;20029;-62
2021/06/01 07:08:30;;;;;;;4.90;2.40;;;21.10;54.50;;;;;;5054833;28;20125;-61
2021/06/01 07:10:56;;;;;;;3.80;2.30;;;21.20;54.50;;;;;;5054125;28;20379;-61
2021/06/01 07:13:26;;;;;;;6.95;2.17;;;21.10;54.30;;;;;;5055083;28;20021;-63
2021/06/01 07:15:52;;;;;;;3.45;1.95;;;21.10;54.40;;;;;;5053972;28;20464;-62
2021/06/01 07:18:18;;;;;;;8.70;2.17;;;21.10;54.50;;;;;;5054878;28;20021;-62
2021/06/01 07:20:45;;;;;;;3.75;1.88;;;21.10;54.60;;;;;;5054864;28;20475;-62
2021/06/01 07:23:10;;;;;;;7.22;2.10;;;21.30;55.00;;;;;;5055174;28;20436;-62
2021/06/01 07:25:36;;;;;;;3.20;1.83;;;21.20;55.40;;;;;;5054364;28;20051;-62
2021/06/01 07:28:03;;;;;;;5.88;1.70;;;20.90;55.40;;;;;;5054520;28;20455;-62
2021/06/01 07:30:30;;;;;;;5.13;1.90;;;21.20;55.70;;;;;;5055050;28;20021;-62
2021/06/01 07:32:56;;;;;;;4.47;2.17;;;21.20;55.90;;;;;;5054850;28;20032;-63
2021/06/01 07:35:22;;;;;;;4.20;2.10;;;21.60;56.40;;;;;;5053324;28;20107;-64
2021/06/01 07:37:49;;;;;;;5.88;1.70;;;21.30;56.30;;;;;;5055363;28;20519;-62
2021/06/01 07:40:14;;;;;;;4.18;1.80;;;21.20;56.30;;;;;;5054937;28;20079;-62
2021/06/01 07:42:40;;;;;;;3.17;1.65;;;21.00;56.30;;;;;;5054598;28;20025;-62
2021/06/01 07:45:06;;;;;;;2.60;1.58;;;21.00;56.30;;;;;;5053327;28;20025;-62
2021/06/01 07:47:32;;;;;;;3.45;1.58;;;21.30;56.50;;;;;;5054531;28;20021;-62
2021/06/01 07:49:58;;;;;;;3.72;1.45;;;21.40;56.70;;;;;;5054771;28;20017;-62
2021/06/01 07:52:24;;;;;;;3.10;1.40;;;21.30;56.60;;;;;;5054436;28;20059;-62
2021/06/01 07:54:50;;;;;;;3.78;1.98;;;21.00;56.90;;;;;;5054445;28;20037;-62
2021/06/01 07:57:16;;;;;;;5.35;2.00;;;21.30;56.70;;;;;;5054519;28;20152;-62
2021/06/01 07:59:41;;;;;;;2.17;1.67;;;21.30;56.70;;;;;;5054014;28;20061;-62
2021/06/01 08:02:07;;;;;;;2.47;1.40;;;21.10;56.70;;;;;;5053913;28;20051;-62
2021/06/01 08:04:33;;;;;;;3.10;1.58;;;21.10;56.80;;;;;;5054157;28;20053;-62
2021/06/01 08:07:05;;;;;;;4.80;1.70;;;21.40;57.00;;;;;;5054333;28;20017;-61
2021/06/01 08:09:30;;;;;;;7.55;1.73;;;21.40;56.90;;;;;;5054452;28;20021;-62
2021/06/01 08:11:56;;;;;;;3.72;1.77;;;21.70;57.10;;;;;;5054336;28;20031;-62
2021/06/01 08:14:22;;;;;;;4.82;1.77;;;21.10;56.80;;;;;;5053889;28;20027;-62
2021/06/01 08:16:48;;;;;;;3.35;1.75;;;;;;;;;;5053727;28;20028;-62
2021/06/01 08:19:15;;;;;;;4.95;1.60;;;21.40;56.40;;;;;;5054034;28;20198;-62
2021/06/01 08:24:15;;;;;;;2.42;1.30;;;21.40;80.00;;;;;;5053731;28;20087;-62
2021/06/01 08:26:41;;;;;;;4.18;1.40;;;21.70;57.20;;;;;;5052341;28;20013;-63
2021/06/01 08:29:08;;;;;;;2.63;1.48;;;21.50;57.00;;;;;;5053469;28;20522;-62
2021/06/01 08:31:33;;;;;;;2.13;1.38;;;21.60;57.60;;;;;;5052228;28;20031;-62
2021/06/01 08:33:59;;;;;;;5.03;1.67;;;21.60;57.00;;;;;;5053695;28;20434;-62
2021/06/01 08:36:26;;;;;;;3.58;1.40;;;21.40;56.90;;;;;;5053195;28;20045;-62
2021/06/01 08:38:52;;;;;;;1.70;1.20;;;21.70;57.00;;;;;;5053165;28;20025;-63
2021/06/01 08:41:18;;;;;;;3.92;1.60;;;21.90;57.10;;;;;;5053148;28;20025;-62
2021/06/01 08:43:44;;;;;;;1.38;1.27;;;22.10;57.20;;;;;;5053596;28;20056;-62
2021/06/01 08:46:10;;;;;;;2.70;1.30;;;21.50;57.00;;;;;;5053228;28;20067;-62
2021/06/01 08:48:37;;;;;;;4.80;1.40;;;21.70;57.00;;;;;;5052998;28;20064;-62
2021/06/01 08:51:03;;;;;;;1.90;1.52;;;21.80;57.00;;;;;;5053465;28;20017;-62
2021/06/01 08:53:28;;;;;;;2.67;1.63;;;21.80;56.90;;;;;;5053149;28;20104;-62
2021/06/01 08:55:55;;;;;;;1.95;1.30;;;21.60;56.90;;;;;;5053032;28;20025;-62
2021/06/01 08:58:22;;;;;;;1.90;1.20;;;21.90;56.90;;;;;;5052904;28;20032;-62
2021/06/01 09:00:49;;;;;;;2.83;1.20;;;22.40;57.00;;;;;;5053021;28;20017;-61
2021/06/01 09:03:22;;;;;;;4.68;1.48;;;22.00;56.70;;;;;;5053276;28;20036;-63
2021/06/01 09:11:50;;;;;;;2.63;1.42;;;22.60;56.90;;;;;;5053348;28;20125;-62
2021/06/01 09:22:34;;;;;;;4.75;1.33;;;22.40;56.40;;;;;;5052966;28;20083;-62
2021/06/01 09:25:00;;;;;;;5.45;1.52;;;22.40;56.80;;;;;;5052991;28;20025;-62
2021/06/01 09:27:28;;;;;;;2.50;1.42;;;23.00;57.20;;;;;;5052846;28;20028;-62
2021/06/01 09:29:53;;;;;;;4.15;1.20;;;22.30;56.70;;;;;;5052688;28;20021;-62
2021/06/01 09:32:21;;;;;;;2.00;1.10;;;22.50;56.70;;;;;;5052806;28;20032;-62
2021/06/01 09:34:49;;;;;;;1.88;1.33;;;22.50;56.70;;;;;;5052921;28;20057;-62
2021/06/01 09:37:29;;;;;;;5.22;1.48;;;22.60;56.70;;;;;;5052726;28;20434;-62
2021/06/01 09:40:08;;;;;;;2.35;1.08;;;22.70;56.80;;;;;;5052835;28;20021;-62
2021/06/01 09:42:36;;;;;;;3.78;1.13;;;23.20;56.90;;;;;;5052441;28;20502;-62
2021/06/01 09:45:07;;;;;;;2.80;1.20;;;23.10;56.90;;;;;;5051100;28;20383;-62
2021/06/01 09:47:57;;;;;;;3.03;1.05;;;22.70;56.60;;;;;;5052501;28;20455;-60
2021/06/01 09:50:54;;;;;;;1.20;1.10;;;22.70;56.40;;;;;;5057338;28;20472;-60
2021/06/01 09:53:30;;;;;;;2.92;1.15;;;23.20;56.70;;;;;;5054708;28;20116;-60
2021/06/01 09:55:56;;;;;;;2.35;1.33;;;22.60;56.40;;;;;;5042383;28;20033;-60
2021/06/01 09:58:40;;;;;;;2.55;1.50;;;22.90;56.40;;;;;;5059251;28;20017;-60
2021/06/01 10:01:07;;;;;;;4.25;1.00;;;22.90;56.40;;;;;;5058894;28;20488;-60
2021/06/01 10:03:47;;;;;;;1.55;0.93;;;22.90;56.30;;;;;;5058988;28;20482;-59
2021/06/01 10:06:13;;;;;;;;;;;23.30;56.50;;;;;;5059482;28;20036;-62
2021/06/01 10:08:49;;;;;;;2.05;1.13;;;23.00;56.30;;;;;;5059126;28;19940;-60
2021/06/01 10:11:15;;;;;;;2.53;0.95;;;23.00;56.30;;;;;;5059104;28;20024;-61
2021/06/01 10:13:42;;;;;;;4.70;1.02;;;23.10;56.30;;;;;;5059018;28;20453;-61
2021/06/01 10:16:11;;;;;;;2.38;1.40;;;23.10;56.30;;;;;;5059113;28;20132;-60
2021/06/01 10:18:42;;;;;;;2.55;0.98;;;23.30;56.30;;;;;;5057536;28;20013;-61
2021/06/01 10:21:13;;;;;;;3.35;1.13;;;23.10;56.10;;;;;;5058943;28;20017;-60
2021/06/01 10:23:41;;;;;;;4.35;1.27;;;23.30;56.30;;;;;;5058920;28;20040;-60
2021/06/01 10:26:10;;;;;;;2.58;1.10;;;23.20;56.20;;;;;;5059111;28;20370;-60
2021/06/01 10:28:40;;;;;;;2.13;1.05;;;23.50;56.20;;;;;;5058795;28;20509;-61
2021/06/01 10:31:08;;;;;;;1.70;1.23;;;23.20;56.10;;;;;;5058984;28;20028;-61
2021/06/01 10:33:39;;;;;;;2.35;1.20;;;23.30;56.00;;;;;;5059063;28;20382;-60
2021/06/01 10:48:40;;;;;;;1.25;1.10;;;23.20;55.60;;;;;;5059304;28;20458;-61
2021/06/01 10:50:25;;;;;;;1.95;1.02;;;23.20;55.70;;;;;;5058919;28;20502;-61
2021/06/01 10:53:11;;;;;;;1.45;1.17;;;23.80;56.00;;;;;;5058697;28;20028;-61
2021/06/01 10:55:56;;;;;;;1.50;0.80;;;24.00;56.10;;;;;;5057355;28;20036;-60
2021/06/01 10:58:32;;;;;;;2.40;0.90;;;23.70;55.80;;;;;;5058828;28;20067;-61
2021/06/01 11:04:24;;;;;;;1.67;1.40;;;23.40;55.60;;;;;;5055268;28;20601;-60
2021/06/01 11:06:55;;;;;;;3.13;1.00;;;23.60;55.60;;;;;;5054573;28;20388;-61
2021/06/01 11:09:32;;;;;;;1.10;0.80;;;23.60;55.60;;;;;;5055237;28;20036;-60
2021/06/01 11:12:00;;;;;;;1.05;0.90;;;23.40;55.40;;;;;;5055483;28;20083;-61
2021/06/01 11:14:30;;;;;;;2.17;0.82;;;23.80;55.60;;;;;;5053939;28;20028;-61
2021/06/01 11:16:58;;;;;;;2.38;1.20;;;23.70;55.50;;;;;;5055417;28;20021;-61
2021/06/01 11:19:30;;;;;;;2.20;0.80;;;23.40;55.40;;;;;;5055193;28;20025;-61
2021/06/01 11:22:04;;;;;;;0.85;0.75;;;23.80;55.60;;;;;;5055021;28;20057;-60
2021/06/01 11:25:13;;;;;;;1.20;1.10;;;23.70;55.50;;;;;;5054949;28;20029;-60
2021/06/01 11:32:56;;;;;;;2.05;0.82;;;23.80;55.40;;;;;;5055126;28;20037;-60
2021/06/01 11:35:26;;;;;;;1.58;0.95;;;23.70;55.30;;;;;;5054843;28;20029;-60
2021/06/01 11:37:58;;;;;;;1.60;1.25;;;23.80;55.40;;;;;;5055091;28;20064;-60
2021/06/01 11:43:06;;;;;;;2.75;1.10;;;23.80;55.20;;;;;;5054842;28;20036;-61
2021/06/01 11:46:11;;;;;;;0.68;0.68;;;23.80;55.20;;;;;;5054630;28;20025;-61
2021/06/01 11:53:56;;;;;;;2.15;0.80;;;24.20;55.40;;;;;;5054561;28;20421;-60
2021/06/01 12:02:20;;;;;;;2.58;0.90;;;24.30;55.50;;;;;;5054531;28;20442;-61
2021/06/01 12:18:38;;;;;;;1.30;1.20;;;24.30;55.50;;;;;;5054330;28;20036;-61
2021/06/01 12:21:06;;;;;;;1.35;0.90;;;24.40;55.50;;;;;;5054358;28;20021;-61
2021/06/01 12:23:45;;;;;;;2.78;1.15;;;23.90;55.20;;;;;;5054464;28;20417;-61
2021/06/01 12:31:51;;;;;;;;;;;24.00;55.20;;;;;;5054410;28;20035;-61
2021/06/01 12:34:24;;;;;;;1.05;0.80;;;24.00;55.10;;;;;;5053844;28;20003;-61
2021/06/01 13:21:53;;;;;;;0.90;0.90;;;24.30;54.90;;;;;;5052922;28;20032;-60
2021/06/01 13:24:32;;;;;;;1.25;1.08;;;24.00;54.90;;;;;;5050756;28;20033;-60
2021/06/01 13:38:45;;;;;;;1.20;0.93;;;24.30;54.80;;;;;;5052893;28;20043;-60
2021/06/01 13:46:51;;;;;;;1.02;0.93;;;23.80;54.60;;;;;;5052871;28;20036;-61
2021/06/01 13:49:34;;;;;;;0.90;0.88;;;23.80;54.80;;;;;;5052823;28;20036;-60
2021/06/01 13:59:54;;;;;;;2.67;0.88;;;23.80;54.90;;;;;;5052702;28;20040;-60
2021/06/01 15:28:52;;;;;;;2.60;1.30;;;24.60;53.40;;;;;;5055150;28;20174;-60
2021/06/01 15:47:58;;;;;;;3.25;0.77;;;24.40;51.70;;;;;;5054113;28;20095;-60
2021/06/01 15:50:35;;;;;;;2.40;1.40;;;24.90;51.80;;;;;;5053200;28;20029;-61
2021/06/01 16:32:18;;;;;;;4.43;0.98;;;24.50;51.20;;;;;;5053931;28;20048;-60
2021/06/01 17:04:59;;;;;;;2.38;1.42;;;24.50;51.90;;;;;;5053074;28;20404;-61
2021/06/01 17:07:53;;;;;;;1.58;1.42;;;24.50;51.90;;;;;;5053271;28;20096;-60
2021/06/01 17:13:10;;;;;;;2.13;1.33;;;24.50;52.00;;;;;;5053019;28;20086;-60
2021/06/01 17:15:36;;;;;;;2.78;1.33;;;24.40;52.00;;;;;;5052961;28;20017;-61
2021/06/01 17:18:10;;;;;;;2.20;1.13;;;24.50;51.90;;;;;;5053288;28;20105;-60
2021/06/01 17:23:28;;;;;;;1.08;0.98;;;24.40;52.00;;;;;;5053125;28;20051;-60
2021/06/01 17:31:47;;;;;;;3.03;1.55;;;24.40;52.00;;;;;;5053159;28;20501;-59
2021/06/01 17:37:00;;;;;;;1.00;0.90;;;24.40;52.10;;;;;;5052984;28;20506;-60
2021/06/01 17:39:26;;;;;;;4.13;1.55;;;24.30;52.20;;;;;;5052721;28;20471;-55
2021/06/01 17:41:55;;;;;;;4.32;1.25;;;24.40;52.40;;;;;;5052734;28;20032;-59
2021/06/01 17:44:25;;;;;;;3.75;1.23;;;24.50;52.70;;;;;;5053194;28;20122;-59
2021/06/01 17:46:55;;;;;;;4.00;1.23;;;24.40;52.70;;;;;;5051303;28;20029;-59
2021/06/01 17:49:21;;;;;;;;;;;24.40;52.70;;;;;;5053181;28;20028;-59
2021/06/01 17:51:52;;;;;;;4.05;1.23;;;24.40;53.00;;;;;;5051257;28;20321;-60
2021/06/01 17:54:30;;;;;;;1.88;1.30;;;24.50;53.20;;;;;;5051284;28;20017;-60
2021/06/01 17:56:56;;;;;;;3.35;1.73;;;24.40;53.20;;;;;;5052803;28;20029;-61
2021/06/01 17:59:23;;;;;;;1.83;0.95;;;24.80;53.40;;;;;;5051483;28;20095;-61
2021/06/01 18:01:49;;;;;;;6.53;1.30;;;24.20;53.50;;;;;;5052429;28;20104;-61
2021/06/01 18:04:17;;;;;;;1.20;1.08;;;24.40;53.50;;;;;;5052264;28;20101;-61
2021/06/01 18:06:50;;;;;;;6.03;1.17;;;24.40;53.50;;;;;;5052695;28;20441;-61
2021/06/01 19:27:15;;;;;;;2.90;1.10;;;24.40;54.40;;;;;;5055284;28;20168;-61
2021/06/01 19:50:22;;;;;;;2.30;1.48;;;24.60;54.10;;;;;;5054883;28;20040;-57
2021/06/01 19:52:53;;;;;;;2.95;1.35;;;24.10;53.90;;;;;;5054778;28;20035;-59
2021/06/01 19:55:21;;;;;;;5.65;1.50;;;24.00;54.10;;;;;;5054835;28;20024;-58
2021/06/01 19:57:51;;;;;;;3.08;1.10;;;24.00;54.00;;;;;;5053349;28;20064;-59
2021/06/01 20:00:19;;;;;;;1.35;1.25;;;24.20;54.10;;;;;;5054687;28;20021;-58
2021/06/01 20:02:45;;;;;;;5.10;1.50;;;24.00;54.10;;;;;;5054184;28;20115;-59
2021/06/01 20:05:14;;;;;;;3.22;1.10;;;24.00;54.00;;;;;;5054189;28;20120;-58
2021/06/01 20:07:41;;;;;;;1.80;1.27;;;24.00;54.00;;;;;;5054373;28;20036;-58
2021/06/01 20:10:09;;;;;;;2.90;1.10;;;24.00;53.80;;;;;;5054241;28;20056;-58